Time;durP1;ratioP1;P1;durP2;ratioP2;P2;SDS_P1;SDS_P2;PMS_P1;PMS_P2;Temp;Humidity;BMP_temperature;BMP_pressure;BME280_temperature;BME280_humidity;BME280_pressure;Samples;Min_cycle;Max_cycle;Signal;HPM_P1;HPM_P2
2021/05/04 00:01:00;;;;;;;15.73;10.70;;;;;;;;;;5095423;28;20455;-70
2021/05/04 00:03:28;;;;;;;13.67;11.47;;;;;;;;;;5094914;28;20480;-71
2021/05/04 00:05:57;;;;;;;18.60;11.17;;;;;;;;;;5095171;28;20475;-70
2021/05/04 00:08:24;;;;;;;17.80;10.07;;;;;;;;;;5075206;28;20499;-71
2021/05/04 00:10:52;;;;;;;12.53;8.83;;;;;;;;;;5074590;28;20814;-71
2021/05/04 00:13:29;;;;;;;14.10;10.20;;;;;;;;;;5075328;28;20449;-71
2021/05/04 00:15:56;;;;;;;13.50;10.10;;;;;;;;;;5074658;28;20464;-71
2021/05/04 00:18:27;;;;;;;11.97;9.50;;;;;;;;;;5075030;28;20872;-71
2021/05/04 00:20:56;;;;;;;10.13;8.70;;;;;;;;;;5074693;28;20531;-70
2021/05/04 00:23:27;;;;;;;15.67;10.80;;;;;;;;;;5077136;28;20452;-71
2021/05/04 00:25:55;;;;;;;9.73;8.60;;;;;;;;;;5079060;28;20448;-71
2021/05/04 00:28:22;;;;;;;11.73;9.13;;;;;;;;;;5078581;28;21078;-72
2021/05/04 00:30:51;;;;;;;10.83;9.50;;;;;;;;;;5078989;28;20444;-71
2021/05/04 00:33:20;;;;;;;10.43;8.80;;;;;;;;;;5078675;28;20530;-71
2021/05/04 00:35:52;;;;;;;10.63;8.40;;;;;;;;;;5078314;28;20522;-71
2021/05/04 00:38:30;;;;;;;11.90;9.10;;;;;;;;;;5079016;28;20456;-71
2021/05/04 00:41:04;;;;;;;14.87;9.27;;;;;;;;;;5078693;28;20559;-71
2021/05/04 00:43:40;;;;;;;10.20;7.80;;;;;;;;;;5079200;28;20452;-71
2021/05/04 00:46:08;;;;;;;10.50;8.20;;;;;;;;;;5079194;28;20453;-71
2021/05/04 00:48:36;;;;;;;9.00;7.40;;;;;;;;;;5078475;28;20509;-71
2021/05/04 00:51:04;;;;;;;9.87;7.63;;;;;;;;;;5078095;28;20939;-70
2021/05/04 00:53:32;;;;;;;10.63;8.53;;;;;;;;;;5078577;28;20441;-71
2021/05/04 00:56:01;;;;;;;12.97;9.90;;;;;;;;;;5078980;28;20493;-72
2021/05/04 00:58:29;;;;;;;8.70;7.03;;;;;;;;;;5078841;28;20475;-71
2021/05/04 01:00:59;;;;;;;10.33;6.53;;;;;;;;;;5079279;28;20503;-71
2021/05/04 01:03:30;;;;;;;10.10;8.17;;;;;;;;;;5079642;28;20448;-71
2021/05/04 01:06:03;;;;;;;8.67;7.77;;;;;;;;;;5078445;28;20514;-71
2021/05/04 01:08:36;;;;;;;9.13;7.23;;;;;;;;;;5084010;28;20467;-74
2021/05/04 01:11:05;;;;;;;8.70;7.50;;;;;;;;;;5098214;28;20455;-71
2021/05/04 01:13:39;;;;;;;8.37;5.57;;;;;;;;;;5098200;28;20467;-71
2021/05/04 01:16:07;;;;;;;9.43;6.80;;;;;;;;;;5098547;28;20443;-71
2021/05/04 01:18:34;;;;;;;8.90;7.00;;;;;;;;;;5098311;28;20509;-71
2021/05/04 01:21:03;;;;;;;8.80;6.93;;;;;;;;;;5097925;28;20531;-70
2021/05/04 01:23:30;;;;;;;8.33;6.30;;;;;;;;;;5097139;28;20721;-70
2021/05/04 01:25:57;;;;;;;7.00;5.93;;;;;;;;;;5097154;28;20875;-71
2021/05/04 01:28:24;;;;;;;8.43;6.00;;;;;;;;;;5096567;28;20502;-70
2021/05/04 01:30:51;;;;;;;10.00;7.17;;;;;;;;;;5096369;28;20475;-70
2021/05/04 01:33:19;;;;;;;10.13;5.87;;;;;;;;;;5095942;28;20476;-70
2021/05/04 01:35:46;;;;;;;6.33;5.40;;;;;;;;;;5095939;28;20483;-70
2021/05/04 01:38:14;;;;;;;8.23;6.10;;;;;;;;;;5097041;28;20864;-71
2021/05/04 01:40:41;;;;;;;7.10;5.00;;;;;;;;;;5080353;28;20539;-70
2021/05/04 01:43:09;;;;;;;7.00;5.73;;;;;;;;;;5095933;28;20838;-69
2021/05/04 01:45:36;;;;;;;6.03;5.20;;;;;;;;;;5096323;28;20546;-72
2021/05/04 01:48:03;;;;;;;7.93;5.80;;;;;;;;;;5096630;28;20459;-70
2021/05/04 01:50:30;;;;;;;12.03;5.60;;;;;;;;;;5096238;28;20490;-71
2021/05/04 01:52:58;;;;;;;7.60;5.67;;;;;;;;;;5096287;28;20519;-71
2021/05/04 01:55:26;;;;;;;7.33;5.60;;;;;;;;;;5096259;28;20479;-71
2021/05/04 01:57:54;;;;;;;7.80;4.70;;;;;;;;;;5095904;28;20448;-71
2021/05/04 02:00:21;;;;;;;9.50;6.10;;;;;;;;;;5096478;28;20550;-71
2021/05/04 02:02:48;;;;;;;6.50;5.30;;;;;;;;;;5095893;28;20502;-71
2021/05/04 02:05:15;;;;;;;9.07;5.73;;;;;;;;;;5076278;28;20940;-71
2021/05/04 02:07:43;;;;;;;6.97;5.67;;;;;;;;;;5075157;28;20481;-71
2021/05/04 02:10:11;;;;;;;17.60;8.00;;;;;;;;;;5076011;28;20544;-71
2021/05/04 02:12:40;;;;;;;8.37;5.63;;;;;;;;;;5075633;28;20485;-70
2021/05/04 02:15:08;;;;;;;7.47;4.50;;;;;;;;;;5075711;28;20791;-70
2021/05/04 02:17:36;;;;;;;5.90;5.30;;;;;;;;;;5075567;28;20464;-70
2021/05/04 02:20:04;;;;;;;7.33;4.97;;;;;;;;;;5075608;28;20464;-70
2021/05/04 02:22:32;;;;;;;7.03;5.20;;;;;;;;;;5076166;28;20853;-70
2021/05/04 02:24:59;;;;;;;6.57;4.60;;;;;;;;;;5076363;28;20492;-71
2021/05/04 02:27:27;;;;;;;7.40;4.93;;;;;;;;;;5076493;28;20524;-72
2021/05/04 02:29:55;;;;;;;5.47;4.83;;;;;;;;;;5076653;28;20453;-71
2021/05/04 02:32:22;;;;;;;8.67;5.00;;;;;;;;;;5076495;28;20481;-71
2021/05/04 02:34:49;;;;;;;6.03;4.80;;;;;;;;;;5075904;28;20580;-71
2021/05/04 02:37:17;;;;;;;5.67;4.77;;;;;;;;;;5076489;28;20517;-70
2021/05/04 02:39:44;;;;;;;6.83;4.83;;;;;;;;;;5076720;28;20543;-70
2021/05/04 02:42:11;;;;;;;5.77;4.37;;;;;;;;;;5076474;28;20539;-69
2021/05/04 02:44:42;;;;;;;8.03;5.70;;;;;;;;;;5076130;28;20775;-71
2021/05/04 02:47:10;;;;;;;5.40;3.83;;;;;;;;;;5076002;28;20540;-71
2021/05/04 02:49:37;;;;;;;6.67;4.90;;;;;;;;;;5075769;28;20931;-70
2021/05/04 02:52:07;;;;;;;8.20;4.00;;;;;;;;;;5075918;28;20481;-71
2021/05/04 02:54:34;;;;;;;5.67;4.20;;;;;;;;;;5076529;28;20887;-72
2021/05/04 02:57:02;;;;;;;6.07;3.77;;;;;;;;;;5076426;28;20780;-72
2021/05/04 02:59:29;;;;;;;7.73;4.63;;;;;;;;;;5075498;28;20876;-71
2021/05/04 03:01:56;;;;;;;7.27;4.20;;;;;;;;;;5075132;28;20449;-71
2021/05/04 03:04:25;;;;;;;8.00;4.97;;;;;;;;;;5074600;28;20559;-73
2021/05/04 03:06:55;;;;;;;5.00;3.70;;;;;;;;;;5075269;28;20463;-71
2021/05/04 03:09:22;;;;;;;6.83;3.50;;;;;;;;;;5074865;28;20493;-70
2021/05/04 03:11:49;;;;;;;3.93;2.87;;;;;;;;;;5075199;28;20901;-71
2021/05/04 03:14:20;;;;;;;5.90;4.07;;;;;;;;;;5076014;28;20463;-71
2021/05/04 03:16:47;;;;;;;5.53;3.40;;;;;;;;;;5074668;28;20481;-72
2021/05/04 03:19:15;;;;;;;4.87;2.97;;;;;;;;;;5091031;28;20448;-70
2021/05/04 03:21:46;;;;;;;7.73;3.50;;;;;;;;;;5080914;28;20452;-71
2021/05/04 03:24:15;;;;;;;7.03;4.17;;;;;;;;;;5076331;28;20942;-71
2021/05/04 03:26:45;;;;;;;5.20;3.10;;;;;;;;;;5092853;28;20484;-72
2021/05/04 03:29:13;;;;;;;7.67;3.70;;;;;;;;;;5096008;28;20456;-72
2021/05/04 03:31:43;;;;;;;5.60;3.77;;;;;;;;;;5096103;28;20479;-71
2021/05/04 03:34:11;;;;;;;10.60;3.90;;;;;;;;;;5096640;28;20774;-71
2021/05/04 03:36:40;;;;;;;5.60;4.20;;;;;;;;;;5096478;28;20490;-69
2021/05/04 03:39:11;;;;;;;5.00;3.53;;;;;;;;;;5095824;28;20452;-71
2021/05/04 03:41:38;;;;;;;5.07;3.67;;;;;;;;;;5096443;28;20441;-72
2021/05/04 03:44:06;;;;;;;6.83;3.90;;;;;;;;;;5095876;28;20517;-71
2021/05/04 03:46:33;;;;;;;3.63;3.33;;;;;;;;;;5095195;28;20567;-72
2021/05/04 03:49:01;;;;;;;5.27;3.70;;;;;;;;;;5095692;28;21050;-71
2021/05/04 03:51:28;;;;;;;5.00;3.87;;;;;;;;;;5082597;28;20450;-71
2021/05/04 03:53:55;;;;;;;6.10;4.03;;;;;;;;;;5075227;28;20460;-72
2021/05/04 03:56:24;;;;;;;5.97;4.03;;;;;;;;;;5075378;28;20467;-70
2021/05/04 03:58:52;;;;;;;3.70;3.20;;;;;;;;;;5075090;28;20560;-70
2021/05/04 04:04:23;;;;;;;5.43;3.90;;;;;;;;;;5095856;28;20484;-71
2021/05/04 04:06:55;;;;;;;5.80;3.53;;;;;;;;;;5092741;28;20470;-71
2021/05/04 04:09:27;;;;;;;4.70;3.70;;;;;;;;;;5075776;28;20488;-72
2021/05/04 04:11:56;;;;;;;5.30;3.50;;;;;;;;;;5075176;28;20511;-70
2021/05/04 04:14:23;;;;;;;4.70;3.90;;;;;;;;;;5078809;28;20472;-70
2021/05/04 04:16:52;;;;;;;5.57;3.27;;;;;;;;;;5082696;28;20789;-71
2021/05/04 04:19:20;;;;;;;4.33;3.87;;;;;;;;;;5075125;28;20441;-71
2021/05/04 04:21:49;;;;;;;9.60;3.50;;;;;;;;;;5081802;28;20446;-71
2021/05/04 04:24:16;;;;;;;6.40;3.60;;;;;;;;;;5080795;28;20444;-70
2021/05/04 04:26:43;;;;;;;3.73;3.23;;;;;;;;;;5094717;28;20734;-70
2021/05/04 04:29:12;;;;;;;3.63;2.40;;;;;;;;;;5075869;28;20883;-70
2021/05/04 04:31:41;;;;;;;6.33;3.70;;;;;;;;;;5075082;28;20481;-70
2021/05/04 04:34:08;;;;;;;5.30;3.30;;;;;;;;;;5074644;28;20476;-70
2021/05/04 04:36:36;;;;;;;7.10;3.80;;;;;;;;;;5074202;28;20492;-70
2021/05/04 04:39:03;;;;;;;4.87;3.00;;;;;;;;;;5074461;28;20452;-70
2021/05/04 04:41:31;;;;;;;5.27;3.53;;;;;;;;;;5074717;28;20448;-69
2021/05/04 04:43:58;;;;;;;4.10;2.60;;;;;;;;;;5089144;28;20869;-70
2021/05/04 04:46:39;;;;;;;4.40;3.47;;;;;;;;;;5094272;28;20463;-71
2021/05/04 04:49:08;;;;;;;3.80;2.80;;;;;;;;;;5093855;28;20448;-70
2021/05/04 04:51:35;;;;;;;5.07;3.60;;;;;;;;;;5094154;28;20436;-70
2021/05/04 04:54:03;;;;;;;5.30;2.70;;;;;;;;;;5093999;28;20447;-69
2021/05/04 04:56:32;;;;;;;6.00;3.50;;;;;;;;;;5077460;28;20552;-71
2021/05/04 04:58:59;;;;;;;6.33;4.60;;;;;;;;;;5091387;28;20459;-70
2021/05/04 05:01:28;;;;;;;4.47;3.33;;;;;;;;;;5085041;28;20472;-71
2021/05/04 05:03:55;;;;;;;4.50;3.23;;;;;;;;;;5074571;28;20512;-72
2021/05/04 05:06:27;;;;;;;7.20;3.63;;;;;;;;;;5079406;28;20468;-72
2021/05/04 05:08:58;;;;;;;4.60;3.70;;;;;;;;;;5075259;28;20466;-72
2021/05/04 05:11:25;;;;;;;3.73;2.67;;;;;;;;;;5077176;28;20741;-71
2021/05/04 05:13:53;;;;;;;3.97;3.57;;;;;;;;;;5077473;28;20460;-71
2021/05/04 05:16:24;;;;;;;3.80;3.03;;;;;;;;;;5076979;28;20802;-71
2021/05/04 05:18:55;;;;;;;4.70;3.70;;;;;;;;;;5076264;28;20434;-71
2021/05/04 05:21:22;;;;;;;5.53;3.97;;;;;;;;;;5076143;28;20979;-71
2021/05/04 05:23:50;;;;;;;4.63;3.57;;;;;;;;;;5077095;28;20506;-71
2021/05/04 05:26:18;;;;;;;9.50;4.17;;;;;;;;;;5076491;28;20584;-71
2021/05/04 05:28:46;;;;;;;9.03;3.63;;;;;;;;;;5082820;28;20459;-71
2021/05/04 05:31:13;;;;;;;4.93;3.57;;;;;;;;;;5081095;28;20970;-70
2021/05/04 05:33:40;;;;;;;6.30;3.07;;;;;;;;;;5081197;28;20482;-72
2021/05/04 05:36:09;;;;;;;4.40;3.20;;;;;;;;;;5075646;28;20468;-72
2021/05/04 05:38:36;;;;;;;3.57;2.87;;;;;;;;;;5087871;28;20491;-71
2021/05/04 05:41:31;;;;;;;7.40;4.07;;;;;;;;;;5095988;28;20521;-72
2021/05/04 05:43:58;;;;;;;3.70;3.00;;;;;;;;;;5096618;28;20527;-72
2021/05/04 05:46:30;;;;;;;5.00;3.37;;;;;;;;;;5095116;28;20451;-72
2021/05/04 05:48:57;;;;;;;6.20;4.77;;;;;;;;;;5096499;28;20455;-71
2021/05/04 05:51:25;;;;;;;4.47;3.40;;;;;;;;;;5095337;28;20452;-71
2021/05/04 05:53:53;;;;;;;4.63;4.00;;;;;;;;;;5093635;28;20549;-72
2021/05/04 05:56:21;;;;;;;5.70;4.07;;;;;;;;;;5095415;28;20456;-72
2021/05/04 05:58:48;;;;;;;4.77;3.80;;;;;;;;;;5095660;28;20448;-72
2021/05/04 06:01:17;;;;;;;5.10;3.60;;;;;;;;;;5095449;28;20451;-71
2021/05/04 06:03:46;;;;;;;7.67;3.90;;;;;;;;;;5096043;28;20464;-71
2021/05/04 06:06:19;;;;;;;4.60;3.70;;;;;;;;;;5096435;28;20562;-71
2021/05/04 06:08:48;;;;;;;3.97;3.57;;;;;;;;;;5095790;28;20452;-71
2021/05/04 06:11:15;;;;;;;3.67;3.27;;;;;;;;;;5095920;28;20499;-71
2021/05/04 06:13:43;;;;;;;5.30;3.50;;;;;;;;;;5086294;28;20558;-71
2021/05/04 06:16:11;;;;;;;4.60;3.50;;;;;;;;;;5074967;28;20487;-71
2021/05/04 06:18:39;;;;;;;4.20;3.10;;;;;;;;;;5073435;28;20863;-71
2021/05/04 06:21:08;;;;;;;7.03;4.57;;;;;;;;;;5073495;28;20456;-71
2021/05/04 06:23:39;;;;;;;4.20;3.60;;;;;;;;;;5076240;28;20441;-71
2021/05/04 06:26:19;;;;;;;3.87;3.30;;;;;;;;;;5074262;28;20456;-70
2021/05/04 06:28:51;;;;;;;4.23;3.53;;;;;;;;;;5075357;28;20460;-70
2021/05/04 06:31:21;;;;;;;4.30;3.10;;;;;;;;;;5076639;28;20452;-70
2021/05/04 06:33:49;;;;;;;5.20;3.10;;;;;;;;;;5077484;28;20528;-71
2021/05/04 06:36:17;;;;;;;4.60;3.90;;;;;;;;;;5076805;28;20461;-70
2021/05/04 06:39:08;;;;;;;5.93;4.00;;;;;;;;;;5075348;28;20480;-71
2021/05/04 06:41:40;;;;;;;5.67;3.70;;;;;;;;;;5076624;28;20457;-71
2021/05/04 06:44:12;;;;;;;3.83;3.23;;;;;;;;;;5076708;28;20548;-70
2021/05/04 06:46:41;;;;;;;4.07;3.10;;;;;;;;;;5078894;28;20543;-69
2021/05/04 06:49:13;;;;;;;5.20;3.50;;;;;;;;;;5090505;28;20452;-71
2021/05/04 06:51:41;;;;;;;7.20;3.00;;;;;;;;;;5095254;28;20465;-70
2021/05/04 06:54:08;;;;;;;3.20;2.60;;;;;;;;;;5095197;28;20459;-71
2021/05/04 06:56:35;;;;;;;4.63;2.50;;;;;;;;;;5094927;28;20467;-69
2021/05/04 06:59:12;;;;;;;3.77;2.53;;;;;;;;;;5094273;28;20868;-70
2021/05/04 07:01:40;;;;;;;4.80;2.40;;;;;;;;;;5095616;28;20452;-70
2021/05/04 07:04:07;;;;;;;5.37;2.00;;;;;;;;;;5095071;28;20593;-71
2021/05/04 07:06:35;;;;;;;6.17;2.80;;;;;;;;;;5095385;28;20478;-73
2021/05/04 07:09:03;;;;;;;10.53;2.60;;;;;;;;;;5096889;28;20721;-72
2021/05/04 07:11:35;;;;;;;4.73;2.93;;;;;;;;;;5097172;28;20447;-72
2021/05/04 07:14:04;;;;;;;3.03;2.63;;;;;;;;;;5099185;28;20448;-71
2021/05/04 07:16:37;;;;;;;2.50;2.10;;;;;;;;;;5095335;28;20456;-70
2021/05/04 07:19:05;;;;;;;3.70;2.30;;;;;;;;;;5095041;28;20536;-72
2021/05/04 07:21:33;;;;;;;3.03;2.30;;;;;;;;;;5094556;28;20883;-71
2021/05/04 07:24:05;;;;;;;3.20;2.23;;;;;;;;;;5095020;28;20444;-73
2021/05/04 07:26:33;;;;;;;6.27;2.27;;;;;;;;;;5096701;28;20436;-72
2021/05/04 07:29:06;;;;;;;4.23;2.23;;;;;;;;;;5094406;28;20444;-70
2021/05/04 07:31:35;;;;;;;3.90;2.30;;;;;;;;;;5094926;28;20448;-70
2021/05/04 07:34:02;;;;;;;2.43;1.93;;;;;;;;;;5094561;28;20757;-71
2021/05/04 07:36:31;;;;;;;3.23;1.80;;;;;;;;;;5074533;28;20520;-70
2021/05/04 07:38:58;;;;;;;2.70;1.90;;;;;;;;;;5083267;28;20531;-70
2021/05/04 07:41:26;;;;;;;3.50;1.67;;;;;;;;;;5093857;28;20453;-69
2021/05/04 07:43:56;;;;;;;3.90;2.10;;;;;;;;;;5093990;28;20463;-70
2021/05/04 07:46:26;;;;;;;5.77;2.20;;;;;;;;;;5092827;28;20456;-72
2021/05/04 07:49:00;;;;;;;3.00;1.70;;;;;;;;;;5076069;28;20485;-71
2021/05/04 07:51:28;;;;;;;2.70;1.73;;;;;;;;;;5077701;28;20445;-71
2021/05/04 07:53:57;;;;;;;3.50;2.20;;;;;;;;;;5075989;28;20473;-71
2021/05/04 07:56:37;;;;;;;2.47;1.80;;;;;;;;;;5075170;28;20897;-72
2021/05/04 07:59:04;;;;;;;4.90;2.77;;;;;;;;;;5074675;28;20555;-73
2021/05/04 08:01:31;;;;;;;3.80;2.63;;;;;;;;;;5075338;28;20458;-72
2021/05/04 08:04:00;;;;;;;2.57;2.20;;;;;;;;;;5075460;28;20452;-71
2021/05/04 08:06:27;;;;;;;2.83;1.93;;;;;;;;;;5075425;28;20471;-71
2021/05/04 08:08:54;;;;;;;2.30;1.40;;;;;;;;;;5081497;28;20468;-71
2021/05/04 08:11:22;;;;;;;2.90;2.20;;;;;;;;;;5094325;28;20462;-71
2021/05/04 08:13:49;;;;;;;3.90;2.43;;;;;;;;;;5094917;28;20487;-70
2021/05/04 08:16:18;;;;;;;2.57;2.13;;;;;;;;;;5095604;28;20719;-70
2021/05/04 08:18:47;;;;;;;2.20;1.40;;;;;;;;;;5096938;28;20456;-70
2021/05/04 08:21:17;;;;;;;3.97;2.43;;;;;;;;;;5096240;28;20456;-69
2021/05/04 08:23:45;;;;;;;3.83;1.93;;;;;;;;;;5095800;28;20474;-71
2021/05/04 08:26:13;;;;;;;3.50;1.70;;;;;;;;;;5095266;28;20471;-71
2021/05/04 08:28:41;;;;;;;3.50;2.30;;;;;;;;;;5096043;28;20460;-71
2021/05/04 08:31:10;;;;;;;3.27;2.03;;;;;;;;;;5095152;28;20450;-71
2021/05/04 08:33:39;;;;;;;3.40;2.20;;;;;;;;;;5094790;28;20488;-71
2021/05/04 08:36:08;;;;;;;5.87;4.00;;;;;;;;;;5096008;28;20448;-71
2021/05/04 08:38:41;;;;;;;2.53;1.93;;;;;;;;;;5097051;28;20456;-71
2021/05/04 08:41:09;;;;;;;2.70;2.00;;;;;;;;;;5096009;28;20471;-71
2021/05/04 08:43:38;;;;;;;4.33;2.13;;;;;;;;;;5096726;28;20455;-71
2021/05/04 08:46:08;;;;;;;2.90;2.47;;;;;;;;;;5098397;28;20487;-72
2021/05/04 08:48:37;;;;;;;4.03;2.70;;;;;;;;;;5099120;28;20824;-71
2021/05/04 08:51:07;;;;;;;3.63;2.57;;;;;;;;;;5091802;28;20492;-71
2021/05/04 08:53:34;;;;;;;5.97;2.20;;;;;;;;;;5094184;28;20528;-69
2021/05/04 08:56:12;;;;;;;2.97;1.90;;;;;;;;;;5093491;28;20452;-70
2021/05/04 09:01:44;;;;;;;3.67;2.73;;;;;;;;;;5094722;28;20555;-70
2021/05/04 09:04:35;;;;;;;1.50;1.10;;;;;;;;;;5099161;28;20513;-70
2021/05/04 09:07:21;;;;;;;1.80;1.40;;;;;;;;;;5098623;28;20708;-73
2021/05/04 09:10:16;;;;;;;2.47;1.40;;;;;;;;;;5099324;28;20534;-69
2021/05/04 09:12:50;;;;;;;4.60;2.70;;;;;;;;;;5098707;28;20512;-74
2021/05/04 09:18:38;;;;;;;3.57;2.40;;;;;;;;;;5090025;28;20432;-68
2021/05/04 09:21:27;;;;;;;3.43;2.30;;;;;;;;;;5097407;28;20646;-70
2021/05/04 09:23:57;;;;;;;6.67;2.07;;;;;;;;;;5098692;28;20706;-70
2021/05/04 09:29:19;;;;;;;6.40;1.50;;;;;;;;;;5098249;28;20872;-70
2021/05/04 09:31:47;;;;;;;13.60;12.43;;;;;;;;;;5098701;28;20508;-69
2021/05/04 09:34:21;;;;;;;2.90;1.40;;;;;;;;;;5097018;28;20463;-70
2021/05/04 09:36:56;;;;;;;4.83;1.70;;;;;;;;;;5100222;28;20448;-72
2021/05/04 09:39:36;;;;;;;3.73;2.50;;;;;;;;;;5097509;28;20491;-71
2021/05/04 09:42:11;;;;;;;3.30;1.60;;;;;;;;;;5099566;28;20545;-72
2021/05/04 09:44:46;;;;;;;4.33;2.20;;;;;;;;;;5096744;28;20448;-71
2021/05/04 09:47:20;;;;;;;3.10;1.90;;;;;;;;;;5096712;28;20732;-71
2021/05/04 09:49:47;;;;;;;4.33;2.00;;;;;;;;;;5097781;28;20926;-70
2021/05/04 09:52:22;;;;;;;3.27;1.90;;;;;;;;;;5096916;28;20515;-71
2021/05/04 09:54:51;;;;;;;2.07;1.53;;;;;;;;;;5097118;28;20787;-70
2021/05/04 09:57:44;;;;;;;2.20;1.37;;;;;;;;;;5096513;28;20456;-70
2021/05/04 10:00:17;;;;;;;3.13;1.93;;;;;;;;;;5097754;28;20448;-71
2021/05/04 10:02:47;;;;;;;2.53;2.00;;;;;;;;;;5096741;28;20456;-71
2021/05/04 10:05:17;;;;;;;3.93;1.17;;;;;;;;;;5097027;28;20444;-70
2021/05/04 10:07:46;;;;;;;4.73;1.50;;;;;;;;;;5095911;28;20556;-70
2021/05/04 10:10:15;;;;;;;2.80;1.50;;;;;;;;;;5094233;28;20475;-69
2021/05/04 10:12:44;;;;;;;3.20;1.77;;;;;;;;;;5089873;28;20488;-71
2021/05/04 10:15:14;;;;;;;2.40;1.63;;;;;;;;;;5095099;28;21031;-70
2021/05/04 10:17:44;;;;;;;2.40;1.47;;;;;;;;;;5097200;28;20502;-69
2021/05/04 10:20:21;;;;;;;1.60;1.17;;;;;;;;;;5096665;28;20455;-70
2021/05/04 10:22:53;;;;;;;4.20;1.50;;;;;;;;;;5096813;28;20886;-70
2021/05/04 10:25:25;;;;;;;2.37;1.40;;;;;;;;;;5098267;28;20959;-71
2021/05/04 10:28:03;;;;;;;2.43;1.63;;;;;;;;;;5097200;28;20487;-70
2021/05/04 10:30:33;;;;;;;3.60;1.50;;;;;;;;;;5097494;28;20951;-70
2021/05/04 10:33:12;;;;;;;2.97;1.57;;;;;;;;;;5097655;28;20468;-70
2021/05/04 10:35:42;;;;;;;2.63;1.63;;;;;;;;;;5100128;28;20460;-69
2021/05/04 10:38:19;;;;;;;3.03;1.30;;;;;;;;;;5107021;28;20482;-68
2021/05/04 10:40:48;;;;;;;1.87;1.20;;;;;;;;;;5108187;28;20531;-70
2021/05/04 10:43:38;;;;;;;2.70;1.40;;;;;;;;;;5103617;28;20913;-71
2021/05/04 10:46:09;;;;;;;2.10;1.53;;;;;;;;;;5094603;28;20879;-71
2021/05/04 10:48:54;;;;;;;7.97;1.77;;;;;;;;;;5097201;28;20440;-70
2021/05/04 10:51:42;;;;;;;2.57;1.10;;;;;;;;;;5096751;28;20460;-69
2021/05/04 10:54:23;;;;;;;1.97;1.37;;;;;;;;;;5095249;28;20526;-70
2021/05/04 10:56:57;;;;;;;3.77;1.47;;;;;;;;;;5096068;28;20448;-71
2021/05/04 10:59:49;;;;;;;3.13;1.93;;;;;;;;;;5097252;28;20710;-72
2021/05/04 11:02:30;;;;;;;2.70;1.40;;;;;;;;;;5098560;28;20447;-70
2021/05/04 11:05:06;;;;;;;3.70;1.00;;;;;;;;;;5100048;28;20482;-70
2021/05/04 11:07:56;;;;;;;3.10;1.70;;;;;;;;;;5096232;28;20478;-71
2021/05/04 11:10:28;;;;;;;2.07;1.40;;;;;;;;;;5096919;28;20452;-70
2021/05/04 11:12:57;;;;;;;2.03;1.37;;;;;;;;;;5095481;28;20487;-71
2021/05/04 11:15:26;;;;;;;1.97;1.17;;;;;;;;;;5094934;28;20479;-69
2021/05/04 11:17:54;;;;;;;3.00;1.30;;;;;;;;;;5096445;28;20449;-71
2021/05/04 11:20:53;;;;;;;1.47;1.20;;;;;;;;;;5095652;28;20437;-69
2021/05/04 11:23:25;;;;;;;4.63;1.97;;;;;;;;;;5096748;28;20746;-71
2021/05/04 11:25:52;;;;;;;2.13;1.63;;;;;;;;;;5095251;28;20448;-70
2021/05/04 11:28:20;;;;;;;6.43;2.00;;;;;;;;;;5093269;28;20538;-70
2021/05/04 11:30:48;;;;;;;2.40;1.50;;;;;;;;;;5094255;28;20459;-71
2021/05/04 11:33:29;;;;;;;2.23;1.37;;;;;;;;;;5093559;28;20566;-70
2021/05/04 11:35:57;;;;;;;3.83;1.67;;;;;;;;;;5094342;28;20879;-71
2021/05/04 11:38:26;;;;;;;2.00;1.40;;;;;;;;;;5094439;28;20558;-70
2021/05/04 11:40:57;;;;;;;2.80;1.27;;;;;;;;;;5094860;28;20517;-70
2021/05/04 11:43:36;;;;;;;2.90;1.60;;;;;;;;;;5095280;28;20451;-69
2021/05/04 11:46:04;;;;;;;3.80;1.57;;;;;;;;;;5095366;28;20873;-72
2021/05/04 11:48:32;;;;;;;4.23;1.60;;;;;;;;;;5094767;28;20436;-69
2021/05/04 11:50:59;;;;;;;3.13;1.87;;;;;;;;;;5094725;28;20460;-70
2021/05/04 11:53:35;;;;;;;10.93;1.57;;;;;;;;;;5094511;28;20576;-69
2021/05/04 11:56:11;;;;;;;4.10;2.03;;;;;;;;;;5094242;28;20455;-70
2021/05/04 11:58:40;;;;;;;2.73;1.30;;;;;;;;;;5095143;28;20454;-71
2021/05/04 12:01:09;;;;;;;3.77;1.47;;;;;;;;;;5101190;28;20460;-72
2021/05/04 12:03:39;;;;;;;2.47;1.50;;;;;;;;;;5090623;28;20480;-72
2021/05/04 12:06:07;;;;;;;2.17;1.50;;;;;;;;;;5098310;28;20456;-69
2021/05/04 12:08:42;;;;;;;1.80;1.30;;;;;;;;;;5096325;28;20436;-69
2021/05/04 12:11:10;;;;;;;2.40;1.20;;;;;;;;;;5095455;28;20542;-69
2021/05/04 12:13:40;;;;;;;1.30;0.70;;;;;;;;;;5095168;28;20826;-70
2021/05/04 12:16:08;;;;;;;4.03;1.30;;;;;;;;;;5096389;28;20467;-70
2021/05/04 12:18:39;;;;;;;2.87;1.20;;;;;;;;;;5097404;28;20944;-70
2021/05/04 12:21:11;;;;;;;1.47;0.87;;;;;;;;;;5099962;28;20464;-69
2021/05/04 12:23:41;;;;;;;3.00;0.90;;;;;;;;;;5097368;28;20451;-70
2021/05/04 12:26:10;;;;;;;2.10;0.70;;;;;;;;;;5099741;28;20756;-70
2021/05/04 12:28:48;;;;;;;1.30;0.60;;;;;;;;;;5097532;28;20980;-71
2021/05/04 12:31:32;;;;;;;2.53;0.90;;;;;;;;;;5098013;28;20452;-71
2021/05/04 12:34:01;;;;;;;2.07;1.63;;;;;;;;;;5097284;28;20542;-70
2021/05/04 12:36:44;;;;;;;5.27;1.10;;;;;;;;;;5096919;28;20514;-70
2021/05/04 12:39:33;;;;;;;1.67;0.80;;;;;;;;;;5097549;28;20452;-70
2021/05/04 12:42:02;;;;;;;3.10;0.83;;;;;;;;;;5099150;28;20459;-69
2021/05/04 12:44:36;;;;;;;1.27;0.60;;;;;;;;;;5096784;28;20456;-70
2021/05/04 12:47:18;;;;;;;3.30;1.60;;;;;;;;;;5097549;28;20462;-68
2021/05/04 12:49:47;;;;;;;4.00;2.60;;;;;;;;;;5099305;28;20555;-70
2021/05/04 12:52:18;;;;;;;2.67;1.10;;;;;;;;;;5097389;28;20448;-70
2021/05/04 12:54:47;;;;;;;2.13;0.93;;;;;;;;;;5098665;28;20475;-71
2021/05/04 12:57:24;;;;;;;2.17;1.20;;;;;;;;;;5097620;28;20908;-71
2021/05/04 13:00:02;;;;;;;2.90;1.70;;;;;;;;;;5080704;28;20467;-71
2021/05/04 13:02:38;;;;;;;2.47;1.70;;;;;;;;;;5093280;28;20439;-72
2021/05/04 13:05:25;;;;;;;1.43;1.00;;;;;;;;;;5097980;28;20472;-71
2021/05/04 13:08:04;;;;;;;2.70;1.30;;;;;;;;;;5097375;28;20456;-71
2021/05/04 13:10:50;;;;;;;2.33;1.00;;;;;;;;;;5097519;28;20455;-72
2021/05/04 13:13:36;;;;;;;2.63;0.90;;;;;;;;;;5096712;28;20496;-70
2021/05/04 13:16:37;;;;;;;1.50;1.00;;;;;;;;;;5097019;28;20450;-71
2021/05/04 13:30:43;;;;;;;4.70;2.17;;;;;;;;;;5088151;28;20529;-69
2021/05/04 13:33:16;;;;;;;5.13;1.67;;;;;;;;;;5077486;28;20787;-68
2021/05/04 13:35:54;;;;;;;5.93;1.30;;;;;;;;;;5077730;28;20554;-69
2021/05/04 13:38:38;;;;;;;4.70;1.30;;;;;;;;;;5074385;28;21144;-71
2021/05/04 13:49:31;;;;;;;2.90;1.20;;;;;;;;;;5074142;28;20428;-71
2021/05/04 13:51:59;;;;;;;3.13;1.73;;;;;;;;;;5077333;28;20469;-70
2021/05/04 13:54:28;;;;;;;2.40;1.47;;;;;;;;;;5088382;28;20522;-69
2021/05/04 13:57:01;;;;;;;2.77;1.53;;;;;;;;;;5097257;28;20467;-71
2021/05/04 13:59:34;;;;;;;2.77;1.50;;;;;;;;;;5097584;28;20440;-72
2021/05/04 14:02:09;;;;;;;2.90;0.90;;;;;;;;;;5094968;28;21057;-70
2021/05/04 14:04:44;;;;;;;2.10;0.80;;;;;;;;;;5095959;28;20983;-70
2021/05/04 14:32:33;;;;;;;2.20;1.10;;;;;;;;;;5092985;28;20432;-71
2021/05/04 14:35:10;;;;;;;1.70;0.97;;;;;;;;;;5096585;28;20452;-69
2021/05/04 14:38:09;;;;;;;1.50;1.00;;;;;;;;;;5096973;28;20482;-70
2021/05/04 15:01:31;;;;;;;3.57;0.73;;;;;;;;;;5096365;27;20941;-68
2021/05/04 15:07:08;;;;;;;2.70;1.00;;;;;;;;;;5092513;28;20475;-69
2021/05/04 15:09:51;;;;;;;4.17;0.87;;;;;;;;;;5093626;27;20682;-70
2021/05/04 15:12:45;;;;;;;3.53;0.90;;;;;;;;;;5094383;27;20485;-68
2021/05/04 15:15:33;;;;;;;1.63;0.60;;;;;;;;;;5093279;27;20458;-71
2021/05/04 15:20:39;;;;;;;2.53;1.13;;;;;;;;;;5094982;27;20448;-70
2021/05/04 15:24:11;;;;;;;1.37;0.83;;;;;;;;;;5085175;28;20497;-70
2021/05/04 15:27:00;;;;;;;3.10;0.93;;;;;;;;;;5079112;28;20479;-71
2021/05/04 15:32:43;;;;;;;3.80;0.80;;;;;;;;;;5092181;28;20463;-70
2021/05/04 15:35:29;;;;;;;4.90;0.83;;;;;;;;;;5091989;28;20453;-70
2021/05/04 15:38:11;;;;;;;7.27;0.77;;;;;;;;;;5084620;27;20480;-69
2021/05/04 15:41:05;;;;;;;6.80;0.93;;;;;;;;;;5094082;27;20459;-71
2021/05/04 15:44:24;;;;;;;1.73;0.90;;;;;;;;;;5091554;27;20909;-71
2021/05/04 15:47:12;;;;;;;5.40;0.73;;;;;;;;;;5094697;28;20437;-69
2021/05/04 15:52:47;;;;;;;2.40;0.97;;;;;;;;;;5083828;28;20457;-70
2021/05/04 16:07:09;;;;;;;1.47;0.60;;;;;;;;;;5034931;28;20479;-69
2021/05/04 16:09:39;;;;;;;10.00;5.23;;;;;;;;;;5081472;28;20672;-70
2021/05/04 16:12:09;;;;;;;3.20;1.00;;;;;;;;;;5078753;28;20473;-70
2021/05/04 16:14:37;;;;;;;1.70;0.90;;;;;;;;;;5091252;28;20487;-71
2021/05/04 16:17:08;;;;;;;2.90;1.00;;;;;;;;;;5095175;28;20480;-70
2021/05/04 16:23:07;;;;;;;2.43;1.43;;;;;;;;;;5085837;28;20458;-69
2021/05/04 16:25:51;;;;;;;3.93;2.03;;;;;;;;;;5092817;28;20444;-70
2021/05/04 16:28:23;;;;;;;2.47;1.23;;;;;;;;;;5094522;28;20722;-70
2021/05/04 16:30:51;;;;;;;3.00;1.00;;;;;;;;;;5095513;28;20483;-69
2021/05/04 16:33:20;;;;;;;2.50;1.00;;;;;;;;;;5095452;28;20502;-70
2021/05/04 16:35:47;;;;;;;1.40;0.93;;;;;;;;;;5094208;28;20648;-69
2021/05/04 16:38:15;;;;;;;6.40;1.17;;;;;;;;;;5095165;28;20491;-69
2021/05/04 16:40:43;;;;;;;1.83;1.20;;;;;;;;;;5089055;28;20453;-69
2021/05/04 16:43:10;;;;;;;1.50;1.30;;;;;;;;;;5091053;28;20483;-69
2021/05/04 16:45:40;;;;;;;2.47;1.70;;;;;;;;;;5094222;28;20456;-69
2021/05/04 16:48:10;;;;;;;3.00;1.53;;;;;;;;;;5095602;28;20444;-69
2021/05/04 16:50:48;;;;;;;4.40;1.40;;;;;;;;;;5095433;28;20526;-69
2021/05/04 16:53:15;;;;;;;1.47;1.07;;;;;;;;;;5094399;28;20927;-70